createdAt,value
2022-11-24T00:01:17.807Z,6.80
2022-11-24T00:03:46.361Z,6.80
2022-11-24T00:06:16.339Z,6.80
2022-11-24T00:08:45.489Z,6.90
2022-11-24T00:11:18.376Z,6.90
2022-11-24T00:13:45.664Z,6.90
2022-11-24T00:16:17.923Z,6.90
2022-11-24T00:18:47.365Z,7.00
2022-11-24T00:21:15.476Z,7.10
2022-11-24T00:23:42.932Z,7.10
2022-11-24T00:26:15.557Z,7.20
2022-11-24T00:28:43.858Z,7.20
2022-11-24T00:31:31.725Z,7.30
2022-11-24T00:34:02.191Z,7.40
2022-11-24T00:36:32.293Z,7.40
2022-11-24T00:39:01.180Z,7.60
2022-11-24T00:41:29.300Z,7.60
2022-11-24T00:43:57.148Z,7.70
2022-11-24T00:46:25.263Z,7.70
2022-11-24T00:48:52.693Z,7.80
2022-11-24T00:51:20.927Z,7.80
2022-11-24T00:53:48.242Z,7.80
2022-11-24T00:56:15.399Z,7.80
2022-11-24T00:58:42.327Z,7.80
2022-11-24T01:01:13.161Z,7.70
2022-11-24T01:03:40.317Z,7.80
2022-11-24T01:06:09.874Z,7.80
2022-11-24T01:08:41.976Z,7.80
2022-11-24T01:11:53.417Z,7.70
2022-11-24T01:14:23.399Z,7.70
2022-11-24T01:16:50.253Z,7.70
2022-11-24T01:19:17.487Z,7.70
2022-11-24T01:21:44.355Z,7.60
2022-11-24T01:24:11.999Z,7.60
2022-11-24T01:26:39.322Z,7.50
2022-11-24T01:29:06.383Z,7.50
2022-11-24T01:31:33.410Z,7.50
2022-11-24T01:34:00.498Z,7.50
2022-11-24T01:36:27.358Z,7.50
2022-11-24T01:38:54.401Z,7.50
2022-11-24T01:41:25.464Z,7.40
2022-11-24T01:43:54.370Z,7.40
2022-11-24T01:46:42.016Z,7.40
2022-11-24T01:49:35.544Z,7.40
2022-11-24T01:52:11.281Z,7.40
2022-11-24T01:54:52.074Z,7.40
2022-11-24T01:57:37.172Z,7.40
2022-11-24T02:00:10.116Z,7.40
2022-11-24T02:02:37.353Z,7.40
2022-11-24T02:05:34.082Z,7.40
2022-11-24T02:08:05.754Z,7.40
2022-11-24T02:10:33.384Z,7.40
2022-11-24T02:13:00.839Z,7.40
2022-11-24T02:15:28.695Z,7.30
2022-11-24T02:17:55.676Z,7.30
2022-11-24T02:20:22.645Z,7.20
2022-11-24T02:23:17.348Z,7.20
2022-11-24T02:26:38.015Z,7.30
2022-11-24T02:29:05.004Z,7.20
2022-11-24T02:31:32.694Z,7.20
2022-11-24T02:33:59.727Z,7.20
2022-11-24T02:36:26.610Z,7.20
2022-11-24T02:38:53.567Z,7.30
2022-11-24T02:41:23.381Z,7.40
2022-11-24T02:43:57.944Z,7.40
2022-11-24T02:46:25.307Z,7.40
2022-11-24T02:48:52.369Z,7.50
2022-11-24T02:51:19.571Z,7.40
2022-11-24T02:53:46.603Z,7.50
2022-11-24T02:56:13.655Z,7.50
2022-11-24T02:58:40.618Z,7.60
2022-11-24T03:01:08.825Z,7.60
2022-11-24T03:03:35.930Z,7.60
2022-11-24T03:06:04.735Z,7.70
2022-11-24T03:08:33.002Z,7.70
2022-11-24T03:11:01.498Z,7.70
2022-11-24T03:13:28.683Z,7.70
2022-11-24T03:15:55.680Z,7.80
2022-11-24T03:18:22.639Z,7.80
2022-11-24T03:20:49.873Z,7.90
2022-11-24T03:23:16.798Z,7.90
2022-11-24T03:25:43.677Z,8.00
2022-11-24T03:28:10.702Z,8.00
2022-11-24T03:30:37.850Z,8.00
2022-11-24T03:33:19.273Z,8.00
2022-11-24T03:35:46.212Z,8.10
2022-11-24T03:38:13.146Z,8.10
2022-11-24T03:40:40.174Z,8.10
2022-11-24T03:43:07.157Z,8.20
2022-11-24T03:45:49.320Z,8.30
2022-11-24T03:48:17.906Z,8.30
2022-11-24T03:50:53.848Z,8.30
2022-11-24T03:53:20.836Z,8.30
2022-11-24T03:55:47.907Z,8.30
2022-11-24T03:58:14.990Z,8.30
2022-11-24T04:00:42.085Z,8.40
2022-11-24T04:03:09.164Z,8.40
2022-11-24T04:05:36.537Z,8.40
2022-11-24T04:08:05.534Z,8.40
2022-11-24T04:10:36.602Z,8.40
2022-11-24T04:13:05.546Z,8.40
2022-11-24T04:15:32.501Z,8.40
2022-11-24T04:17:59.448Z,8.40
2022-11-24T04:20:26.440Z,8.50
2022-11-24T04:22:53.576Z,8.50
2022-11-24T04:25:20.502Z,8.60
2022-11-24T04:27:52.575Z,8.50
2022-11-24T04:30:21.503Z,8.50
2022-11-24T04:32:48.514Z,8.50
2022-11-24T04:35:15.471Z,8.50
2022-11-24T04:37:42.572Z,8.60
2022-11-24T04:40:10.953Z,8.60
2022-11-24T04:42:39.269Z,8.60
2022-11-24T04:45:07.620Z,8.60
2022-11-24T04:47:34.708Z,8.70
2022-11-24T04:50:02.111Z,8.70
2022-11-24T04:52:37.351Z,8.70
2022-11-24T04:55:04.380Z,8.70
2022-11-24T04:57:31.455Z,8.70
2022-11-24T04:59:58.371Z,8.70
2022-11-24T05:02:25.370Z,8.70
2022-11-24T05:04:52.365Z,8.70
2022-11-24T05:07:20.107Z,8.70
2022-11-24T05:10:06.200Z,8.80
2022-11-24T05:12:33.248Z,8.80
2022-11-24T05:15:02.177Z,8.80
2022-11-24T05:17:30.902Z,8.80
2022-11-24T05:20:05.935Z,8.80
2022-11-24T05:22:33.242Z,8.80
2022-11-24T05:25:00.439Z,8.70
2022-11-24T05:27:27.415Z,8.60
2022-11-24T05:29:57.736Z,8.50
2022-11-24T05:32:25.158Z,8.50
2022-11-24T05:34:53.909Z,8.50
2022-11-24T05:37:21.738Z,8.40
2022-11-24T05:39:48.648Z,8.40
2022-11-24T05:42:34.041Z,8.40
2022-11-24T05:45:06.256Z,8.40
2022-11-24T05:47:33.439Z,8.30
2022-11-24T05:50:00.578Z,8.30
2022-11-24T05:52:27.607Z,8.20
2022-11-24T05:54:57.551Z,8.20
2022-11-24T05:57:28.710Z,8.20
2022-11-24T05:59:55.736Z,8.20
2022-11-24T06:02:29.724Z,8.10
2022-11-24T06:05:00.682Z,8.20
2022-11-24T06:07:27.776Z,8.20
2022-11-24T06:09:55.199Z,8.20
2022-11-24T06:12:22.113Z,8.20
2022-11-24T06:14:49.073Z,8.20
2022-11-24T06:17:15.953Z,8.20
2022-11-24T06:19:45.655Z,8.20
2022-11-24T06:22:13.083Z,8.30
2022-11-24T06:24:40.038Z,8.30
2022-11-24T06:27:07.780Z,8.30
2022-11-24T06:29:34.686Z,8.30
2022-11-24T06:32:02.048Z,8.30
2022-11-24T06:34:29.356Z,8.20
2022-11-24T06:36:56.525Z,8.20
2022-11-24T06:39:23.519Z,8.10
2022-11-24T06:41:51.559Z,8.10
2022-11-24T06:44:18.917Z,8.20
2022-11-24T06:46:45.846Z,8.10
2022-11-24T06:49:12.785Z,8.10
2022-11-24T06:51:39.910Z,8.10
2022-11-24T06:54:07.798Z,8.10
2022-11-24T06:56:34.889Z,8.10
2022-11-24T06:59:02.776Z,8.10
2022-11-24T07:01:30.589Z,8.10
2022-11-24T07:03:58.236Z,8.10
2022-11-24T07:06:28.650Z,8.10
2022-11-24T07:08:55.660Z,8.20
2022-11-24T07:11:24.089Z,8.20
2022-11-24T07:13:55.110Z,8.20
2022-11-24T07:16:26.105Z,8.20
2022-11-24T07:18:54.661Z,8.20
2022-11-24T07:21:23.396Z,8.20
2022-11-24T07:23:51.328Z,8.20
2022-11-24T07:26:19.089Z,8.30
2022-11-24T07:28:46.534Z,8.30
2022-11-24T07:31:19.363Z,8.40
2022-11-24T07:33:50.989Z,8.40
2022-11-24T07:36:18.472Z,8.50
2022-11-24T07:38:45.864Z,8.50
2022-11-24T07:41:14.716Z,8.60
2022-11-24T07:43:42.131Z,8.60
2022-11-24T07:46:12.611Z,8.70
2022-11-24T07:48:40.308Z,8.70
2022-11-24T07:51:08.030Z,8.70
2022-11-24T07:53:35.820Z,8.80
2022-11-24T07:56:04.411Z,8.80
2022-11-24T07:58:34.246Z,8.80
2022-11-24T08:01:16.789Z,8.90
2022-11-24T08:03:44.793Z,8.90
2022-11-24T08:06:37.504Z,8.80
2022-11-24T08:09:00.851Z,8.90
2022-11-24T08:11:31.589Z,8.90
2022-11-24T08:14:01.014Z,8.90
2022-11-24T08:16:28.002Z,8.90
2022-11-24T08:18:56.126Z,8.90
2022-11-24T08:21:23.768Z,8.90
2022-11-24T08:23:54.009Z,9.00
2022-11-24T08:26:21.146Z,9.00
2022-11-24T08:28:48.473Z,9.00
2022-11-24T08:31:21.248Z,9.00
2022-11-24T08:33:48.871Z,9.00
2022-11-24T08:36:18.858Z,9.00
2022-11-24T08:38:46.158Z,9.00
2022-11-24T08:41:17.349Z,9.10
2022-11-24T08:43:44.526Z,9.10
2022-11-24T08:46:14.397Z,9.10
2022-11-24T08:48:41.725Z,9.10
2022-11-24T08:51:14.301Z,9.10
2022-11-24T08:53:42.108Z,9.10
2022-11-24T08:56:10.304Z,9.10
2022-11-24T08:58:38.123Z,9.00
2022-11-24T09:01:16.236Z,9.00
2022-11-24T09:03:49.949Z,9.00
2022-11-24T09:06:18.951Z,8.90
2022-11-24T09:08:47.898Z,9.00
2022-11-24T09:11:16.490Z,9.00
2022-11-24T09:13:44.158Z,9.00
2022-11-24T09:16:13.494Z,9.00
2022-11-24T09:18:40.598Z,8.90
2022-11-24T09:21:13.436Z,8.90
2022-11-24T09:23:41.218Z,8.90
2022-11-24T09:26:11.255Z,8.90
2022-11-24T09:28:38.392Z,8.90
2022-11-24T09:31:08.674Z,8.90
2022-11-24T09:33:36.805Z,8.90
2022-11-24T09:36:04.438Z,8.90
2022-11-24T09:38:31.914Z,8.90
2022-11-24T09:41:37.925Z,8.90
2022-11-24T09:44:39.013Z,8.90
2022-11-24T09:47:42.529Z,8.90
2022-11-24T09:50:16.888Z,8.90
2022-11-24T09:52:53.740Z,8.90
2022-11-24T09:55:50.056Z,8.90
2022-11-24T09:59:13.547Z,8.90
2022-11-24T10:01:45.542Z,8.80
2022-11-24T10:04:18.415Z,8.70
2022-11-24T10:07:39.580Z,8.60
2022-11-24T10:10:30.630Z,8.50
2022-11-24T10:13:46.775Z,8.40
2022-11-24T10:16:41.037Z,8.40
2022-11-24T10:19:46.380Z,8.40
2022-11-24T10:22:47.286Z,8.40
2022-11-24T10:25:49.043Z,8.40
2022-11-24T10:28:16.826Z,8.40
2022-11-24T10:30:44.317Z,8.40
2022-11-24T10:33:27.109Z,8.50
2022-11-24T10:36:07.214Z,8.50
2022-11-24T10:38:45.814Z,8.60
2022-11-24T10:41:24.990Z,8.70
2022-11-24T10:43:52.599Z,8.80
2022-11-24T10:46:26.705Z,8.90
2022-11-24T10:49:00.512Z,9.00
2022-11-24T10:52:08.685Z,9.00
2022-11-24T10:54:36.211Z,9.00
2022-11-24T10:57:03.806Z,9.00
2022-11-24T10:59:34.705Z,9.00
2022-11-24T11:02:02.690Z,9.00
2022-11-24T11:04:35.417Z,9.10
2022-11-24T11:07:24.034Z,9.10
2022-11-24T11:09:51.591Z,9.20
2022-11-24T11:12:43.473Z,9.20
2022-11-24T11:15:26.790Z,9.30
2022-11-24T11:18:00.088Z,9.30
2022-11-24T11:20:32.839Z,9.30
2022-11-24T11:23:03.474Z,9.40
2022-11-24T11:25:34.013Z,9.40
2022-11-24T11:28:25.210Z,9.40
2022-11-24T11:31:22.531Z,9.50
2022-11-24T11:34:31.194Z,9.50
2022-11-24T11:37:00.032Z,9.50
2022-11-24T11:39:48.931Z,9.50
2022-11-24T11:45:37.696Z,9.40
2022-11-24T11:48:40.648Z,9.50
2022-11-24T11:51:28.548Z,9.70
2022-11-24T11:54:45.259Z,9.80
2022-11-24T11:57:41.297Z,10.00
2022-11-24T12:00:18.037Z,10.10
2022-11-24T12:03:17.869Z,10.10
2022-11-24T12:06:26.947Z,10.10
2022-11-24T12:09:41.597Z,10.30
2022-11-24T12:13:10.280Z,10.30
2022-11-24T12:15:51.015Z,10.20
2022-11-24T12:18:58.276Z,10.10
2022-11-24T12:21:42.253Z,10.20
2022-11-24T12:24:24.073Z,10.30
2022-11-24T12:26:55.951Z,10.40
2022-11-24T12:30:10.856Z,10.60
2022-11-24T12:51:21.082Z,11.00
2022-11-24T12:53:51.209Z,10.90
2022-11-24T12:56:26.460Z,10.80
2022-11-24T12:59:10.603Z,10.70
2022-11-24T13:01:48.605Z,10.70
2022-11-24T13:04:38.192Z,10.60
2022-11-24T13:07:11.582Z,10.50
2022-11-24T13:09:39.394Z,10.50
2022-11-24T13:12:14.278Z,10.50
2022-11-24T13:14:50.334Z,10.40
2022-11-24T13:20:35.660Z,10.30
2022-11-24T13:23:04.809Z,10.30
2022-11-24T13:25:35.939Z,10.30
2022-11-24T13:28:06.588Z,10.40
2022-11-24T13:30:54.603Z,10.50
2022-11-24T13:33:30.981Z,10.60
2022-11-24T13:36:33.346Z,10.70
2022-11-24T13:39:01.763Z,10.80
2022-11-24T13:42:00.915Z,10.80
2022-11-24T13:44:28.595Z,10.80
2022-11-24T13:47:05.660Z,10.70
2022-11-24T13:49:41.516Z,10.60
2022-11-24T13:53:01.010Z,10.50
2022-11-24T13:55:32.256Z,10.40
2022-11-24T13:58:38.303Z,10.40
2022-11-24T14:01:36.320Z,10.30
2022-11-24T14:04:32.902Z,10.20
2022-11-24T14:07:08.762Z,10.20
2022-11-24T14:09:48.195Z,10.10
2022-11-24T14:12:23.032Z,10.10
2022-11-24T14:14:51.918Z,10.10
2022-11-24T14:17:23.468Z,10.00
2022-11-24T14:19:52.902Z,10.00
2022-11-24T14:22:41.342Z,10.00
2022-11-24T14:25:30.969Z,9.90
2022-11-24T14:27:59.593Z,9.80
2022-11-24T14:30:27.176Z,9.80
2022-11-24T14:32:59.228Z,9.80
2022-11-24T14:35:32.194Z,9.70
2022-11-24T14:38:02.136Z,9.70
2022-11-24T14:40:41.353Z,9.80
2022-11-24T14:43:34.937Z,10.30
2022-11-24T14:46:13.303Z,10.60
2022-11-24T14:48:53.143Z,10.70
2022-11-24T14:51:35.839Z,10.60
2022-11-24T14:54:06.490Z,10.30
2022-11-24T14:56:36.303Z,10.00
2022-11-24T14:59:04.611Z,9.80
2022-11-24T15:01:36.321Z,9.50
2022-11-24T15:07:29.760Z,9.20
2022-11-24T15:10:00.084Z,9.00
2022-11-24T15:12:48.324Z,8.90
2022-11-24T15:15:25.367Z,8.80
2022-11-24T15:18:00.438Z,8.90
2022-11-24T15:20:32.446Z,8.80
2022-11-24T15:23:20.821Z,8.80
2022-11-24T15:25:48.363Z,8.70
2022-11-24T15:28:15.313Z,8.60
2022-11-24T15:30:42.798Z,8.60
2022-11-24T15:33:17.728Z,8.50
2022-11-24T15:35:45.913Z,8.40
2022-11-24T15:38:13.493Z,8.30
2022-11-24T15:40:42.677Z,8.20
2022-11-24T15:43:39.504Z,8.10
2022-11-24T15:46:07.875Z,8.10
2022-11-24T15:48:35.218Z,8.10
2022-11-24T15:51:04.274Z,8.00
2022-11-24T15:53:34.996Z,7.90
2022-11-24T15:56:03.726Z,7.80
2022-11-24T15:58:30.661Z,7.80
2022-11-24T16:00:57.868Z,7.80
2022-11-24T16:03:46.159Z,7.70
2022-11-24T16:06:23.672Z,7.50
2022-11-24T16:08:52.249Z,7.50
2022-11-24T16:11:20.292Z,7.50
2022-11-24T16:13:52.352Z,7.50
2022-11-24T16:16:22.213Z,7.50
2022-11-24T16:18:49.391Z,7.40
2022-11-24T16:21:16.834Z,7.40
2022-11-24T16:23:44.113Z,7.30
2022-11-24T16:26:11.124Z,7.30
2022-11-24T16:28:38.189Z,7.20
2022-11-24T16:31:05.428Z,7.10
2022-11-24T16:33:33.546Z,7.00
2022-11-24T16:36:01.374Z,7.00
2022-11-24T16:38:28.413Z,7.00
2022-11-24T16:40:57.112Z,7.00
2022-11-24T16:43:24.870Z,6.80
2022-11-24T16:46:23.116Z,6.70
2022-11-24T16:48:53.160Z,6.70
2022-11-24T16:51:23.747Z,6.80
2022-11-24T16:54:01.668Z,6.90
2022-11-24T16:56:29.953Z,6.90
2022-11-24T16:58:57.124Z,6.90
2022-11-24T17:01:26.114Z,6.90
2022-11-24T17:03:55.834Z,6.80
2022-11-24T17:06:23.649Z,6.80
2022-11-24T17:08:50.868Z,6.80
2022-11-24T17:11:23.750Z,6.80
2022-11-24T17:13:52.534Z,6.80
2022-11-24T17:16:21.879Z,6.80
2022-11-24T17:18:50.767Z,6.70
2022-11-24T17:21:23.705Z,6.60
2022-11-24T17:23:58.449Z,6.60
2022-11-24T17:26:26.033Z,6.70
2022-11-24T17:28:54.096Z,6.70
2022-11-24T17:31:32.738Z,6.70
2022-11-24T17:34:01.268Z,6.70
2022-11-24T17:36:30.242Z,6.70
2022-11-24T17:38:59.583Z,6.60
2022-11-24T17:41:26.765Z,6.70
2022-11-24T17:43:56.796Z,6.70
2022-11-24T17:46:28.427Z,6.80
2022-11-24T17:48:55.406Z,6.70
2022-11-24T17:51:24.648Z,6.70
2022-11-24T17:53:52.800Z,6.80
2022-11-24T17:56:28.518Z,6.70
2022-11-24T17:59:00.573Z,6.70
2022-11-24T18:01:32.260Z,6.60
2022-11-24T18:03:59.863Z,6.60
2022-11-24T18:06:29.796Z,6.50
2022-11-24T18:08:58.193Z,6.40
2022-11-24T18:11:31.454Z,6.30
2022-11-24T18:14:02.874Z,6.30
2022-11-24T18:16:32.928Z,6.40
2022-11-24T18:19:10.455Z,6.40
2022-11-24T18:21:41.782Z,6.40
2022-11-24T18:24:10.371Z,6.40
2022-11-24T18:26:39.057Z,6.30
2022-11-24T18:29:06.466Z,6.30
2022-11-24T18:31:35.915Z,6.30
2022-11-24T18:34:05.098Z,6.30
2022-11-24T18:36:34.799Z,6.20
2022-11-24T18:39:07.256Z,6.20
2022-11-24T18:41:36.788Z,6.10
2022-11-24T18:44:07.894Z,6.10
2022-11-24T18:46:36.180Z,6.00
2022-11-24T18:49:03.273Z,6.00
2022-11-24T18:51:33.189Z,5.90
2022-11-24T18:54:04.795Z,5.90
2022-11-24T18:56:33.295Z,5.80
2022-11-24T18:59:00.379Z,5.80
2022-11-24T19:01:29.874Z,5.90
2022-11-24T19:03:58.637Z,5.90
2022-11-24T19:06:34.346Z,5.90
2022-11-24T19:09:13.091Z,5.90
2022-11-24T19:11:42.771Z,5.90
2022-11-24T19:14:14.081Z,5.90
2022-11-24T19:16:41.755Z,5.90
2022-11-24T19:19:10.532Z,6.00
2022-11-24T19:21:39.412Z,6.10
2022-11-24T19:24:10.168Z,6.10
2022-11-24T19:26:37.994Z,6.20
2022-11-24T19:29:09.190Z,6.20
2022-11-24T19:31:39.513Z,6.30
2022-11-24T19:34:08.263Z,6.20
2022-11-24T19:36:35.458Z,6.20
2022-11-24T19:39:05.482Z,6.20
2022-11-24T19:41:34.441Z,6.30
2022-11-24T19:44:04.552Z,6.30
2022-11-24T19:46:31.860Z,6.40
2022-11-24T19:49:01.007Z,6.50
2022-11-24T19:51:31.193Z,6.50
2022-11-24T19:53:58.951Z,6.60
2022-11-24T19:56:28.182Z,6.60
2022-11-24T19:58:56.054Z,6.70
2022-11-24T20:01:26.088Z,6.60
2022-11-24T20:04:05.278Z,6.60
2022-11-24T20:06:36.860Z,6.50
2022-11-24T20:09:06.643Z,6.50
2022-11-24T20:11:33.924Z,6.50
2022-11-24T20:14:02.093Z,6.30
2022-11-24T20:16:31.583Z,6.30
2022-11-24T20:19:07.612Z,6.30
2022-11-24T20:21:37.889Z,6.30
2022-11-24T20:24:11.641Z,6.30
2022-11-24T20:26:41.496Z,6.30
2022-11-24T20:29:12.355Z,6.30
2022-11-24T20:31:42.574Z,6.20
2022-11-24T20:34:10.234Z,6.30
2022-11-24T20:36:40.525Z,6.20
2022-11-24T20:39:17.910Z,6.20
2022-11-24T20:41:45.055Z,6.10
2022-11-24T20:44:17.371Z,6.20
2022-11-24T20:46:46.288Z,6.20
2022-11-24T20:49:17.012Z,6.20
2022-11-24T20:51:47.138Z,6.20
2022-11-24T20:54:15.680Z,6.20
2022-11-24T20:56:44.405Z,6.20
2022-11-24T20:59:18.001Z,6.20
2022-11-24T21:01:46.989Z,6.10
2022-11-24T21:04:19.966Z,5.90
2022-11-24T21:06:49.007Z,5.80
2022-11-24T21:09:16.582Z,5.80
2022-11-24T21:11:46.179Z,5.80
2022-11-24T21:14:13.397Z,5.80
2022-11-24T21:16:42.185Z,5.80
2022-11-24T21:19:14.991Z,5.70
2022-11-24T21:21:42.931Z,5.70
2022-11-24T21:24:18.325Z,5.70
2022-11-24T21:26:47.884Z,5.70
2022-11-24T21:29:17.912Z,5.70
2022-11-24T21:31:45.162Z,5.60
2022-11-24T21:34:16.298Z,5.60
2022-11-24T21:36:45.227Z,5.50
2022-11-24T21:39:14.117Z,5.60
2022-11-24T21:41:41.716Z,5.50
2022-11-24T21:44:08.990Z,5.40
2022-11-24T21:46:43.660Z,5.30
2022-11-24T21:49:13.372Z,5.20
2022-11-24T21:51:40.286Z,5.20
2022-11-24T21:54:07.541Z,5.20
2022-11-24T21:56:34.533Z,5.20
2022-11-24T21:59:01.530Z,5.10
2022-11-24T22:01:29.541Z,5.10
2022-11-24T22:03:56.790Z,5.20
2022-11-24T22:06:24.215Z,5.20
2022-11-24T22:08:51.418Z,5.10
2022-11-24T22:11:20.907Z,5.10
2022-11-24T22:13:48.456Z,5.10
2022-11-24T22:16:23.788Z,5.10
2022-11-24T22:18:51.451Z,5.10
2022-11-24T22:21:30.791Z,5.10
2022-11-24T22:23:57.771Z,5.10
2022-11-24T22:26:25.742Z,5.00
2022-11-24T22:28:55.074Z,4.90
2022-11-24T22:31:28.125Z,4.80
2022-11-24T22:33:56.258Z,4.70
2022-11-24T22:36:25.566Z,4.60
2022-11-24T22:39:04.231Z,4.60
2022-11-24T22:41:33.882Z,4.60
2022-11-24T22:44:00.811Z,4.60
2022-11-24T22:46:29.782Z,4.60
2022-11-24T22:49:02.034Z,4.60
2022-11-24T22:51:32.509Z,4.60
2022-11-24T22:54:01.585Z,4.60
2022-11-24T22:56:29.885Z,4.50
2022-11-24T22:59:01.655Z,4.40
2022-11-24T23:01:29.891Z,4.30
2022-11-24T23:03:57.008Z,4.30
2022-11-24T23:06:29.211Z,4.30
2022-11-24T23:08:57.924Z,4.30
2022-11-24T23:11:36.359Z,4.30
2022-11-24T23:14:06.220Z,4.30
2022-11-24T23:16:33.201Z,4.40
2022-11-24T23:19:00.326Z,4.30
2022-11-24T23:21:32.235Z,4.30
2022-11-24T23:24:01.258Z,4.30
2022-11-24T23:26:31.111Z,4.30
2022-11-24T23:28:58.124Z,4.20
2022-11-24T23:31:29.311Z,4.20
2022-11-24T23:34:01.480Z,4.20
2022-11-24T23:36:29.625Z,4.20
2022-11-24T23:38:56.988Z,4.20
2022-11-24T23:41:25.965Z,4.20
2022-11-24T23:43:53.011Z,4.30
2022-11-24T23:46:22.621Z,4.40
2022-11-24T23:48:51.429Z,4.40
2022-11-24T23:51:23.691Z,4.30
2022-11-24T23:53:51.556Z,4.30
2022-11-24T23:56:32.686Z,4.30
2022-11-24T23:59:05.636Z,4.30
